createdAt,value
2017-08-19T00:01:17.891Z,93.00
2017-08-19T00:03:46.737Z,93.20
2017-08-19T00:06:14.852Z,93.10
2017-08-19T00:08:43.695Z,92.90
2017-08-19T00:11:11.779Z,92.80
2017-08-19T00:13:39.882Z,93.40
2017-08-19T00:16:07.968Z,92.10
2017-08-19T00:18:36.844Z,93.30
2017-08-19T00:21:04.942Z,93.30
2017-08-19T00:23:33.043Z,93.70
2017-08-19T00:26:01.128Z,93.50
2017-08-19T00:28:29.249Z,92.60
2017-08-19T00:30:57.344Z,92.80
2017-08-19T00:33:25.464Z,92.90
2017-08-19T00:35:53.561Z,92.90
2017-08-19T00:38:21.671Z,92.40
2017-08-19T00:40:49.755Z,93.30
2017-08-19T00:43:17.844Z,92.60
2017-08-19T00:45:45.948Z,92.80
2017-08-19T00:48:14.800Z,93.20
2017-08-19T00:50:42.899Z,93.20
2017-08-19T00:53:11.743Z,92.30
2017-08-19T00:55:39.860Z,92.00
2017-08-19T00:58:07.943Z,92.60
2017-08-19T01:00:36.040Z,92.60
2017-08-19T01:03:04.157Z,92.40
2017-08-19T01:05:32.241Z,92.20
2017-08-19T01:08:00.327Z,92.90
2017-08-19T01:10:29.214Z,92.80
2017-08-19T01:12:57.299Z,92.80
2017-08-19T01:15:28.748Z,93.00
2017-08-19T01:17:57.584Z,92.90
2017-08-19T01:20:25.671Z,92.80
2017-08-19T01:22:53.770Z,92.70
2017-08-19T01:25:40.556Z,93.10
2017-08-19T01:28:08.651Z,93.10
2017-08-19T01:30:36.723Z,93.00
2017-08-19T01:33:04.834Z,92.40
2017-08-19T01:35:32.935Z,92.70
2017-08-19T01:38:01.031Z,93.20
2017-08-19T01:40:29.115Z,93.40
2017-08-19T01:42:57.964Z,93.50
2017-08-19T01:45:26.067Z,93.40
2017-08-19T01:47:54.152Z,93.60
2017-08-19T01:50:22.246Z,93.70
2017-08-19T01:52:50.331Z,93.70
2017-08-19T01:55:18.451Z,93.20
2017-08-19T01:57:46.555Z,93.20
2017-08-19T02:00:14.643Z,93.70
2017-08-19T02:02:42.735Z,93.40
2017-08-19T02:05:10.811Z,93.20
2017-08-19T02:07:38.898Z,93.60
2017-08-19T02:10:07.011Z,93.20
2017-08-19T02:12:35.892Z,93.30
2017-08-19T02:15:04.750Z,93.10
2017-08-19T02:17:32.860Z,93.00
2017-08-19T02:20:01.747Z,93.30
2017-08-19T02:22:34.227Z,93.60
2017-08-19T02:25:02.326Z,93.60
2017-08-19T02:27:30.415Z,93.10
2017-08-19T02:29:58.513Z,93.40
2017-08-19T02:32:26.621Z,93.40
2017-08-19T02:34:54.727Z,93.40
2017-08-19T02:37:22.830Z,92.90
2017-08-19T02:39:50.915Z,92.30
2017-08-19T02:42:19.018Z,92.80
2017-08-19T02:44:47.103Z,92.90
2017-08-19T02:47:15.205Z,92.90
2017-08-19T02:49:44.211Z,92.60
2017-08-19T02:52:12.295Z,93.20
2017-08-19T02:54:40.395Z,93.40
2017-08-19T02:57:08.482Z,92.60
2017-08-19T02:59:36.584Z,93.20
2017-08-19T03:02:04.671Z,93.40
2017-08-19T03:04:32.754Z,93.20
2017-08-19T03:07:00.855Z,93.30
2017-08-19T03:09:29.701Z,93.50
2017-08-19T03:11:57.807Z,93.50
2017-08-19T03:14:26.661Z,93.00
2017-08-19T03:16:54.760Z,92.70
2017-08-19T03:19:22.851Z,93.20
2017-08-19T03:21:51.703Z,93.10
2017-08-19T03:24:19.810Z,93.10
2017-08-19T03:26:47.924Z,92.90
2017-08-19T03:29:16.007Z,93.00
2017-08-19T03:31:44.091Z,93.40
2017-08-19T03:34:12.192Z,93.20
2017-08-19T03:36:41.045Z,93.10
2017-08-19T03:39:12.787Z,93.10
2017-08-19T03:41:40.871Z,93.00
2017-08-19T03:44:08.983Z,93.60
2017-08-19T03:46:37.844Z,92.70
2017-08-19T03:49:05.943Z,92.70
2017-08-19T03:51:34.031Z,93.20
2017-08-19T03:54:05.847Z,93.40
2017-08-19T03:56:33.918Z,93.30
2017-08-19T03:59:02.020Z,93.50
2017-08-19T04:01:30.140Z,93.10
2017-08-19T04:03:58.219Z,93.20
2017-08-19T04:06:26.322Z,93.40
2017-08-19T04:08:54.400Z,93.60
2017-08-19T04:11:22.524Z,93.50
2017-08-19T04:13:50.600Z,93.50
2017-08-19T04:16:18.685Z,93.40
2017-08-19T04:18:46.783Z,93.50
2017-08-19T04:21:14.858Z,93.40
2017-08-19T04:23:42.941Z,93.60
2017-08-19T04:26:11.044Z,93.50
2017-08-19T04:28:39.124Z,93.00
2017-08-19T04:31:07.231Z,93.40
2017-08-19T04:33:36.248Z,93.30
2017-08-19T04:36:04.371Z,93.40
2017-08-19T04:38:32.447Z,93.00
2017-08-19T04:41:01.639Z,93.30
2017-08-19T04:43:29.763Z,93.40
2017-08-19T04:45:57.855Z,93.40
2017-08-19T04:48:25.948Z,92.90
2017-08-19T04:50:54.055Z,93.40
2017-08-19T04:53:22.176Z,93.20
2017-08-19T04:55:51.034Z,93.40
2017-08-19T04:58:19.119Z,93.40
2017-08-19T05:00:47.224Z,93.10
2017-08-19T05:03:15.303Z,92.60
2017-08-19T05:05:43.427Z,92.80
2017-08-19T05:08:11.504Z,93.20
2017-08-19T05:10:39.576Z,93.00
2017-08-19T05:13:07.687Z,92.80
2017-08-19T05:15:36.682Z,93.20
2017-08-19T05:18:04.803Z,93.10
2017-08-19T05:20:32.912Z,92.70
2017-08-19T05:23:01.020Z,93.10
2017-08-19T05:25:29.119Z,93.20
2017-08-19T05:27:57.195Z,92.70
2017-08-19T05:30:25.303Z,93.20
2017-08-19T05:32:53.378Z,92.50
2017-08-19T05:35:21.483Z,93.20
2017-08-19T05:37:49.585Z,92.10
2017-08-19T05:40:17.700Z,92.40
2017-08-19T05:42:45.796Z,92.70
2017-08-19T05:45:19.560Z,92.20
2017-08-19T05:47:47.692Z,92.10
2017-08-19T05:50:15.806Z,92.40
2017-08-19T05:52:47.155Z,91.80
2017-08-19T05:55:19.355Z,92.20
2017-08-19T05:57:47.435Z,92.20
2017-08-19T06:00:15.521Z,92.70
2017-08-19T06:02:43.635Z,92.80
2017-08-19T06:05:12.631Z,92.20
2017-08-19T06:07:40.759Z,92.30
2017-08-19T06:10:08.856Z,92.50
2017-08-19T06:12:36.943Z,92.40
2017-08-19T06:15:05.050Z,91.40
2017-08-19T06:17:33.131Z,92.50
2017-08-19T06:20:01.227Z,92.50
2017-08-19T06:22:32.865Z,92.40
2017-08-19T06:25:02.863Z,91.60
2017-08-19T06:27:30.960Z,91.80
2017-08-19T06:29:59.083Z,92.50
2017-08-19T06:32:27.948Z,91.80
2017-08-19T06:34:56.048Z,91.80
2017-08-19T06:37:24.784Z,92.40
2017-08-19T06:39:52.893Z,91.50
2017-08-19T06:42:21.014Z,91.90
2017-08-19T06:44:49.098Z,91.90
2017-08-19T06:47:17.632Z,92.30
2017-08-19T06:49:49.195Z,91.90
2017-08-19T06:52:17.311Z,92.20
2017-08-19T06:54:45.392Z,92.00
2017-08-19T06:57:13.940Z,92.00
2017-08-19T06:59:42.040Z,91.90
2017-08-19T07:02:10.163Z,91.30
2017-08-19T07:04:38.289Z,91.00
2017-08-19T07:07:09.060Z,91.00
2017-08-19T07:09:37.952Z,91.30
2017-08-19T07:12:07.090Z,90.40
2017-08-19T07:14:35.172Z,90.40
2017-08-19T07:17:03.251Z,90.00
2017-08-19T07:19:32.280Z,90.30
2017-08-19T07:22:00.382Z,89.70
2017-08-19T07:24:28.476Z,90.30
2017-08-19T07:26:57.523Z,87.60
2017-08-19T07:29:25.615Z,87.20
2017-08-19T07:31:53.707Z,89.00
2017-08-19T07:34:21.822Z,89.80
2017-08-19T07:36:49.896Z,89.80
2017-08-19T07:39:18.008Z,87.80
2017-08-19T07:41:46.101Z,88.30
2017-08-19T07:44:14.218Z,85.80
2017-08-19T07:46:42.315Z,87.40
2017-08-19T07:49:11.195Z,87.80
2017-08-19T07:51:39.283Z,87.80
2017-08-19T07:54:08.411Z,85.10
2017-08-19T07:56:36.537Z,85.10
2017-08-19T07:59:04.641Z,87.30
2017-08-19T08:01:32.735Z,85.50
2017-08-19T08:04:00.847Z,87.70
2017-08-19T08:06:28.952Z,84.40
2017-08-19T08:08:59.411Z,85.80
2017-08-19T08:11:28.451Z,84.80
2017-08-19T08:13:56.530Z,86.50
2017-08-19T08:16:24.635Z,87.60
2017-08-19T08:18:52.721Z,86.90
2017-08-19T08:21:20.823Z,86.00
2017-08-19T08:23:49.819Z,86.10
2017-08-19T08:26:17.933Z,84.00
2017-08-19T08:28:46.022Z,84.50
2017-08-19T08:31:14.104Z,84.50
2017-08-19T08:33:42.220Z,85.30
2017-08-19T08:36:11.127Z,86.90
2017-08-19T08:38:39.248Z,86.80
2017-08-19T08:41:07.328Z,86.20
2017-08-19T08:43:35.412Z,84.50
2017-08-19T08:46:03.524Z,85.70
2017-08-19T08:48:31.607Z,85.10
2017-08-19T08:51:00.461Z,85.30
2017-08-19T08:53:28.557Z,85.20
2017-08-19T08:55:56.635Z,84.80
2017-08-19T08:58:24.771Z,84.20
2017-08-19T09:00:52.897Z,84.60
2017-08-19T09:03:20.979Z,85.10
2017-08-19T09:05:51.365Z,83.40
2017-08-19T09:08:19.735Z,84.60
2017-08-19T09:10:47.891Z,85.10
2017-08-19T09:13:19.675Z,84.00
2017-08-19T09:15:48.547Z,85.70
2017-08-19T09:18:20.289Z,85.60
2017-08-19T09:20:48.394Z,84.20
2017-08-19T09:23:17.409Z,83.90
2017-08-19T09:25:45.536Z,83.50
2017-08-19T09:28:16.991Z,84.40
2017-08-19T09:30:46.020Z,84.60
2017-08-19T09:33:15.627Z,82.70
2017-08-19T09:35:43.716Z,82.90
2017-08-19T09:38:11.859Z,84.10
2017-08-19T09:40:41.629Z,82.10
2017-08-19T09:43:10.410Z,82.10
2017-08-19T09:45:38.623Z,81.30
2017-08-19T09:48:06.744Z,83.00
2017-08-19T09:50:34.851Z,82.30
2017-08-19T09:53:02.966Z,80.50
2017-08-19T09:55:31.085Z,79.80
2017-08-19T09:57:59.199Z,80.10
2017-08-19T10:00:27.280Z,80.30
2017-08-19T10:02:55.411Z,80.20
2017-08-19T10:05:23.518Z,78.50
2017-08-19T10:07:57.605Z,77.80
2017-08-19T10:10:41.503Z,77.80
2017-08-19T10:13:09.604Z,78.50
2017-08-19T10:15:37.763Z,79.70
2017-08-19T10:18:05.893Z,78.20
2017-08-19T10:20:35.047Z,78.70
2017-08-19T10:23:03.165Z,81.10
2017-08-19T10:25:32.089Z,78.80
2017-08-19T10:28:01.101Z,78.80
2017-08-19T10:30:29.199Z,79.20
2017-08-19T10:32:57.286Z,79.60
2017-08-19T10:35:25.638Z,79.00
2017-08-19T10:37:53.755Z,78.70
2017-08-19T10:40:21.970Z,79.80
2017-08-19T10:42:50.111Z,79.30
2017-08-19T10:45:18.190Z,78.00
2017-08-19T10:47:46.314Z,79.40
2017-08-19T10:50:14.539Z,77.10
2017-08-19T10:52:42.625Z,77.40
2017-08-19T10:55:10.734Z,79.10
2017-08-19T10:57:39.616Z,76.40
2017-08-19T11:00:07.799Z,75.80
2017-08-19T11:02:35.901Z,74.20
2017-08-19T11:05:04.019Z,73.60
2017-08-19T11:07:32.850Z,76.30
2017-08-19T11:10:01.049Z,72.50
2017-08-19T11:12:29.591Z,71.80
2017-08-19T11:14:57.691Z,74.00
2017-08-19T11:17:25.870Z,72.60
2017-08-19T11:19:54.032Z,72.90
2017-08-19T11:22:22.165Z,74.10
2017-08-19T11:24:51.224Z,74.30
2017-08-19T11:27:23.549Z,68.60
2017-08-19T11:29:51.668Z,66.50
2017-08-19T11:32:20.420Z,70.90
2017-08-19T11:34:49.603Z,72.30
2017-08-19T11:37:18.027Z,72.50
2017-08-19T11:39:49.869Z,73.30
2017-08-19T11:42:19.049Z,75.90
2017-08-19T11:44:48.964Z,71.60
2017-08-19T11:47:20.187Z,72.90
2017-08-19T11:49:49.088Z,73.10
2017-08-19T11:52:36.976Z,70.20
2017-08-19T11:55:05.088Z,71.90
2017-08-19T11:57:33.182Z,69.60
2017-08-19T12:00:01.513Z,70.10
2017-08-19T12:02:29.631Z,70.70
2017-08-19T12:04:58.767Z,72.10
2017-08-19T12:07:26.928Z,68.90
2017-08-19T12:09:55.002Z,72.10
2017-08-19T12:12:25.052Z,69.80
2017-08-19T12:14:53.147Z,72.00
2017-08-19T12:17:21.227Z,66.80
2017-08-19T12:19:49.336Z,70.20
2017-08-19T12:22:17.422Z,68.60
2017-08-19T12:24:45.537Z,65.50
2017-08-19T12:27:13.627Z,67.90
2017-08-19T12:29:42.767Z,67.80
2017-08-19T12:32:10.863Z,68.80
2017-08-19T12:34:38.957Z,67.50
2017-08-19T12:37:07.047Z,66.40
2017-08-19T12:39:35.139Z,68.70
2017-08-19T12:42:03.232Z,69.60
2017-08-19T12:44:31.399Z,68.40
2017-08-19T12:46:59.496Z,72.50
2017-08-19T12:49:27.611Z,68.00
2017-08-19T12:51:55.718Z,67.20
2017-08-19T12:54:23.835Z,68.50
2017-08-19T12:56:51.955Z,67.60
2017-08-19T12:59:20.041Z,68.00
2017-08-19T13:01:48.172Z,66.30
2017-08-19T13:04:16.260Z,70.50
2017-08-19T13:06:44.371Z,69.20
2017-08-19T13:09:13.560Z,70.70
2017-08-19T13:11:41.670Z,69.60
2017-08-19T13:14:10.006Z,69.40
2017-08-19T13:16:38.083Z,71.20
2017-08-19T13:19:06.192Z,66.90
2017-08-19T13:21:34.262Z,67.10
2017-08-19T13:24:02.379Z,69.20
2017-08-19T13:26:30.463Z,65.80
2017-08-19T13:28:58.559Z,65.00
2017-08-19T13:31:26.658Z,63.50
2017-08-19T13:33:54.767Z,66.50
2017-08-19T13:36:22.854Z,62.90
2017-08-19T13:38:50.971Z,60.50
2017-08-19T13:41:19.079Z,60.50
2017-08-19T13:43:47.179Z,61.70
2017-08-19T13:46:15.276Z,62.30
2017-08-19T13:48:43.392Z,63.40
2017-08-19T13:51:11.513Z,64.90
2017-08-19T13:53:39.603Z,64.10
2017-08-19T13:56:07.715Z,65.70
2017-08-19T13:58:36.723Z,65.30
2017-08-19T14:01:04.851Z,60.90
2017-08-19T14:03:32.951Z,62.10
2017-08-19T14:06:01.852Z,64.30
2017-08-19T14:08:29.955Z,64.40
2017-08-19T14:10:58.042Z,63.60
2017-08-19T14:13:26.136Z,65.10
2017-08-19T14:15:54.248Z,66.00
2017-08-19T14:18:22.350Z,64.00
2017-08-19T14:20:50.430Z,64.20
2017-08-19T14:23:18.531Z,67.90
2017-08-19T14:25:47.372Z,65.80
2017-08-19T14:28:15.499Z,65.20
2017-08-19T14:30:44.424Z,66.60
2017-08-19T14:33:12.547Z,66.50
2017-08-19T14:35:40.642Z,67.80
2017-08-19T14:38:08.735Z,66.40
2017-08-19T14:40:36.832Z,67.80
2017-08-19T14:43:04.929Z,73.70
2017-08-19T14:45:33.035Z,77.30
2017-08-19T14:48:01.135Z,78.40
2017-08-19T14:50:29.249Z,77.60
2017-08-19T14:52:57.347Z,78.70
2017-08-19T14:55:25.422Z,80.70
2017-08-19T14:57:53.535Z,84.20
2017-08-19T15:00:21.643Z,81.50
2017-08-19T15:02:49.749Z,80.30
2017-08-19T15:05:17.831Z,78.80
2017-08-19T15:07:45.968Z,81.30
2017-08-19T15:10:14.067Z,81.10
2017-08-19T15:12:42.155Z,81.30
2017-08-19T15:15:10.993Z,79.90
2017-08-19T15:17:39.080Z,79.50
2017-08-19T15:20:07.156Z,76.90
2017-08-19T15:22:35.259Z,79.60
2017-08-19T15:25:03.368Z,79.90
2017-08-19T15:27:31.476Z,80.00
2017-08-19T15:29:59.589Z,79.70
2017-08-19T15:32:27.697Z,80.10
2017-08-19T15:34:56.303Z,77.50
2017-08-19T15:37:25.400Z,82.20
2017-08-19T15:39:54.279Z,79.80
2017-08-19T15:42:23.130Z,79.60
2017-08-19T15:44:54.796Z,79.40
2017-08-19T15:47:22.869Z,79.90
2017-08-19T15:49:50.955Z,79.60
2017-08-19T15:52:19.031Z,80.40
2017-08-19T15:54:47.129Z,80.30
2017-08-19T15:57:15.198Z,82.10
2017-08-19T15:59:43.272Z,82.80
2017-08-19T16:02:11.371Z,83.80
2017-08-19T16:04:39.473Z,83.50
2017-08-19T16:07:07.590Z,82.50
2017-08-19T16:09:36.429Z,83.60
2017-08-19T16:12:04.534Z,82.80
2017-08-19T16:14:32.616Z,82.20
2017-08-19T16:17:00.775Z,80.80
2017-08-19T16:19:28.852Z,81.40
2017-08-19T16:21:57.015Z,80.40
2017-08-19T16:24:25.095Z,80.90
2017-08-19T16:26:53.279Z,81.30
2017-08-19T16:29:21.380Z,81.70
2017-08-19T16:31:49.461Z,81.60
2017-08-19T16:34:17.552Z,81.30
2017-08-19T16:36:45.655Z,82.60
2017-08-19T16:39:13.747Z,82.20
2017-08-19T16:41:41.842Z,82.10
2017-08-19T16:44:09.935Z,82.70
2017-08-19T16:46:38.027Z,83.30
2017-08-19T16:49:06.125Z,84.70
2017-08-19T16:51:34.218Z,86.20
2017-08-19T16:54:02.307Z,85.40
2017-08-19T16:56:30.415Z,86.10
2017-08-19T16:58:58.492Z,84.70
2017-08-19T17:01:26.616Z,85.50
2017-08-19T17:03:54.706Z,85.70
2017-08-19T17:06:22.784Z,86.90
2017-08-19T17:08:50.900Z,86.60
2017-08-19T17:11:18.987Z,85.40
2017-08-19T17:13:47.851Z,84.70
2017-08-19T17:16:15.935Z,84.70
2017-08-19T17:18:44.040Z,86.10
2017-08-19T17:21:12.127Z,86.10
2017-08-19T17:23:40.242Z,86.20
2017-08-19T17:26:08.322Z,86.90
2017-08-19T17:28:36.420Z,85.90
2017-08-19T17:31:04.508Z,85.60
2017-08-19T17:33:32.615Z,86.30
2017-08-19T17:36:00.732Z,85.20
2017-08-19T17:38:29.875Z,86.30
2017-08-19T17:40:58.001Z,86.10
2017-08-19T17:43:26.343Z,85.90
2017-08-19T17:45:54.451Z,85.10
2017-08-19T17:48:23.331Z,86.10
2017-08-19T17:50:51.416Z,86.10
2017-08-19T17:53:20.264Z,87.40
2017-08-19T17:55:48.372Z,87.40
2017-08-19T17:58:17.219Z,83.50
2017-08-19T18:00:45.312Z,83.50
2017-08-19T18:03:13.412Z,84.50
2017-08-19T18:05:41.484Z,84.50
2017-08-19T18:08:09.575Z,81.80
2017-08-19T18:10:37.672Z,83.00
2017-08-19T18:13:09.319Z,83.80
2017-08-19T18:15:37.423Z,83.30
2017-08-19T18:18:05.567Z,85.00
2017-08-19T18:20:33.700Z,84.60
2017-08-19T18:23:01.828Z,83.80
2017-08-19T18:25:29.931Z,85.20
2017-08-19T18:27:58.040Z,85.10
2017-08-19T18:30:26.135Z,85.00
2017-08-19T18:32:54.244Z,84.30
2017-08-19T18:35:22.370Z,83.20
2017-08-19T18:37:50.439Z,82.90
2017-08-19T18:40:18.537Z,83.90
2017-08-19T18:42:46.667Z,84.70
2017-08-19T18:45:14.775Z,83.80
2017-08-19T18:47:42.892Z,84.30
2017-08-19T18:50:11.765Z,85.40
2017-08-19T18:52:39.872Z,85.30
2017-08-19T18:55:07.963Z,85.60
2017-08-19T18:57:36.044Z,86.50
2017-08-19T19:00:04.142Z,86.00
2017-08-19T19:02:35.603Z,86.00
2017-08-19T19:05:03.701Z,87.70
2017-08-19T19:07:32.831Z,88.10
2017-08-19T19:10:00.903Z,87.20
2017-08-19T19:12:28.978Z,88.70
2017-08-19T19:14:57.101Z,87.60
2017-08-19T19:17:25.879Z,88.20
2017-08-19T19:19:53.959Z,88.80
2017-08-19T19:22:22.067Z,89.10
2017-08-19T19:24:50.156Z,88.80
2017-08-19T19:27:18.250Z,90.00
2017-08-19T19:29:46.359Z,90.00
2017-08-19T19:32:15.213Z,90.10
2017-08-19T19:34:43.304Z,90.10
2017-08-19T19:37:11.388Z,90.50
2017-08-19T19:39:40.273Z,90.60
2017-08-19T19:42:09.267Z,90.60
2017-08-19T19:44:37.359Z,90.60
2017-08-19T19:47:05.439Z,90.80
2017-08-19T19:49:33.549Z,90.80
2017-08-19T19:52:01.636Z,90.70
2017-08-19T19:54:29.731Z,90.60
2017-08-19T19:56:57.830Z,90.80
2017-08-19T19:59:25.916Z,90.60
2017-08-19T20:01:54.020Z,90.50
2017-08-19T20:04:22.107Z,90.30
2017-08-19T20:06:50.224Z,90.00
2017-08-19T20:09:18.355Z,90.80
2017-08-19T20:11:46.456Z,90.60
2017-08-19T20:14:15.339Z,90.10
2017-08-19T20:16:43.438Z,90.10
2017-08-19T20:19:11.521Z,90.70
2017-08-19T20:21:39.630Z,90.50
2017-08-19T20:24:07.736Z,90.20
2017-08-19T20:26:35.824Z,90.70
2017-08-19T20:29:03.928Z,90.50
2017-08-19T20:31:32.052Z,90.60
2017-08-19T20:34:00.139Z,90.80
2017-08-19T20:36:28.300Z,90.60
2017-08-19T20:38:56.386Z,90.80
2017-08-19T20:41:24.488Z,90.60
2017-08-19T20:43:52.613Z,90.90
2017-08-19T20:46:20.758Z,90.60
2017-08-19T20:48:48.955Z,90.90
2017-08-19T20:51:18.168Z,90.90
2017-08-19T20:53:46.273Z,90.90
2017-08-19T20:56:14.395Z,91.00
2017-08-19T20:58:42.471Z,90.90
2017-08-19T21:01:11.473Z,91.10
2017-08-19T21:03:40.340Z,91.30
2017-08-19T21:06:08.432Z,91.30
2017-08-19T21:08:37.126Z,91.20
2017-08-19T21:11:05.250Z,91.60
2017-08-19T21:13:33.344Z,91.60
2017-08-19T21:16:01.443Z,91.60
2017-08-19T21:18:29.557Z,91.70
2017-08-19T21:20:57.658Z,91.40
2017-08-19T21:23:25.756Z,91.50
2017-08-19T21:25:58.211Z,91.50
2017-08-19T21:28:27.536Z,91.50
2017-08-19T21:30:59.646Z,91.50
2017-08-19T21:33:27.747Z,91.40
2017-08-19T21:35:59.967Z,91.40
2017-08-19T21:38:31.537Z,91.40
2017-08-19T21:40:59.652Z,92.00
2017-08-19T21:43:27.736Z,91.60
2017-08-19T21:45:55.854Z,91.70
2017-08-19T21:48:23.975Z,91.60
2017-08-19T21:50:53.755Z,92.10
2017-08-19T21:53:21.840Z,92.10
2017-08-19T21:55:49.944Z,92.10
2017-08-19T21:58:18.031Z,92.10
2017-08-19T22:00:46.121Z,92.00
2017-08-19T22:03:17.351Z,92.20
2017-08-19T22:05:45.459Z,92.10
2017-08-19T22:08:13.530Z,91.60
2017-08-19T22:10:41.617Z,92.20
2017-08-19T22:13:09.718Z,92.00
2017-08-19T22:15:37.807Z,92.20
2017-08-19T22:18:05.907Z,92.30
2017-08-19T22:20:33.988Z,92.50
2017-08-19T22:23:03.160Z,92.40
2017-08-19T22:25:31.267Z,92.30
2017-08-19T22:27:59.374Z,92.50
2017-08-19T22:30:27.460Z,92.10
2017-08-19T22:32:55.555Z,92.00
2017-08-19T22:35:23.655Z,92.20
2017-08-19T22:37:51.784Z,92.40
2017-08-19T22:40:19.901Z,92.50
2017-08-19T22:42:47.979Z,92.50
2017-08-19T22:45:16.077Z,92.20
2017-08-19T22:47:44.190Z,92.50
2017-08-19T22:50:12.275Z,92.40
2017-08-19T22:52:40.367Z,92.70
2017-08-19T22:55:08.455Z,92.70
2017-08-19T22:57:37.303Z,92.90
2017-08-19T23:00:05.407Z,92.70
2017-08-19T23:02:33.494Z,92.50
2017-08-19T23:05:04.284Z,93.10
2017-08-19T23:07:35.323Z,92.80
2017-08-19T23:10:03.411Z,92.70
2017-08-19T23:12:31.530Z,92.90
2017-08-19T23:15:00.387Z,92.80
2017-08-19T23:17:28.482Z,92.80
2017-08-19T23:19:57.495Z,92.80
2017-08-19T23:22:25.565Z,93.10
2017-08-19T23:24:53.667Z,92.90
2017-08-19T23:27:21.797Z,92.70
2017-08-19T23:29:49.872Z,92.80
2017-08-19T23:32:18.736Z,92.90
2017-08-19T23:34:46.836Z,92.80
2017-08-19T23:37:17.935Z,92.70
2017-08-19T23:39:46.027Z,92.90
2017-08-19T23:42:14.143Z,92.70
2017-08-19T23:44:42.239Z,92.60
2017-08-19T23:47:11.503Z,92.40
2017-08-19T23:49:39.642Z,92.70
2017-08-19T23:52:07.736Z,91.90
2017-08-19T23:54:37.556Z,92.30
2017-08-19T23:57:05.683Z,92.30
2017-08-19T23:59:35.907Z,92.10
